createdAt,value
2017-03-23T00:00:37.543Z,65.14
2017-03-23T00:01:18.134Z,65.23
2017-03-23T00:01:58.711Z,65.23
2017-03-23T00:02:39.281Z,65.23
2017-03-23T00:03:19.864Z,65.43
2017-03-23T00:05:37.800Z,65.14
2017-03-23T00:06:18.369Z,65.23
2017-03-23T00:06:58.951Z,65.05
2017-03-23T00:07:39.529Z,65.33
2017-03-23T00:08:20.110Z,65.33
2017-03-23T00:09:00.685Z,65.23
2017-03-23T00:09:41.264Z,65.05
2017-03-23T00:10:21.841Z,65.14
2017-03-23T00:12:39.783Z,65.23
2017-03-23T00:13:20.355Z,65.14
2017-03-23T00:14:00.940Z,65.23
2017-03-23T00:14:41.523Z,65.14
2017-03-23T00:15:22.099Z,65.14
2017-03-23T00:16:02.668Z,65.14
2017-03-23T00:16:43.259Z,65.05
2017-03-23T00:17:23.828Z,65.53
2017-03-23T00:18:04.419Z,65.33
2017-03-23T00:18:45.000Z,65.33
2017-03-23T00:19:25.569Z,65.05
2017-03-23T00:20:06.153Z,65.23
2017-03-23T00:20:46.730Z,65.23
2017-03-23T00:21:27.309Z,65.23
2017-03-23T00:22:07.890Z,65.14
2017-03-23T00:22:48.470Z,65.14
2017-03-23T00:23:29.052Z,65.23
2017-03-23T00:24:09.631Z,65.33
2017-03-23T00:24:50.215Z,65.43
2017-03-23T00:25:30.777Z,65.23
2017-03-23T00:26:11.354Z,65.14
2017-03-23T00:27:06.667Z,65.23
2017-03-23T00:27:47.254Z,65.23
2017-03-23T00:28:27.837Z,65.14
2017-03-23T00:29:08.401Z,65.14
2017-03-23T00:29:48.975Z,65.43
2017-03-23T00:30:29.560Z,65.43
2017-03-23T00:31:10.122Z,65.43
2017-03-23T00:31:50.717Z,65.33
2017-03-23T00:32:31.330Z,65.14
2017-03-23T00:33:11.882Z,65.53
2017-03-23T00:34:07.456Z,65.72
2017-03-23T00:34:48.037Z,65.23
2017-03-23T00:35:28.633Z,65.62
2017-03-23T00:36:09.236Z,65.33
2017-03-23T00:36:49.764Z,65.62
2017-03-23T00:37:30.342Z,65.53
2017-03-23T00:38:10.920Z,65.53
2017-03-23T00:38:51.518Z,65.43
2017-03-23T00:39:32.063Z,65.43
2017-03-23T00:40:12.647Z,65.53
2017-03-23T00:40:53.233Z,65.43
2017-03-23T00:41:33.811Z,65.14
2017-03-23T00:42:17.068Z,65.14
2017-03-23T00:44:14.779Z,65.43
2017-03-23T00:44:55.364Z,65.14
2017-03-23T00:45:35.940Z,65.23
2017-03-23T00:46:16.530Z,66.1
2017-03-23T00:46:57.105Z,65.53
2017-03-23T00:47:37.694Z,65.53
2017-03-23T00:48:18.277Z,65.81
2017-03-23T00:48:58.852Z,65.62
2017-03-23T00:49:54.347Z,65.91
2017-03-23T00:50:34.923Z,65.72
2017-03-23T00:52:52.857Z,65.91
2017-03-23T00:53:33.439Z,65.81
2017-03-23T00:54:14.020Z,65.53
2017-03-23T00:54:54.596Z,66
2017-03-23T00:55:35.172Z,66.1
2017-03-23T00:56:15.751Z,66
2017-03-23T00:56:56.336Z,66.58
2017-03-23T00:57:36.925Z,66.49
2017-03-23T00:58:17.503Z,66.2
2017-03-23T00:58:58.076Z,66
2017-03-23T00:59:38.661Z,66.1
2017-03-23T01:00:19.267Z,66.1
2017-03-23T01:00:59.825Z,66.39
2017-03-23T01:01:40.411Z,66.39
2017-03-23T01:02:20.981Z,66.49
2017-03-23T01:03:01.558Z,66.39
2017-03-23T01:03:42.122Z,66
2017-03-23T01:04:22.716Z,66.2
2017-03-23T01:05:03.290Z,66
2017-03-23T01:05:54.861Z,66.1
2017-03-23T01:06:35.432Z,66.3
2017-03-23T01:07:16.010Z,66.2
2017-03-23T01:07:56.584Z,66.3
2017-03-23T01:08:37.173Z,66.77
2017-03-23T01:09:17.749Z,66.3
2017-03-23T01:09:58.333Z,66.3
2017-03-23T01:10:38.920Z,66.2
2017-03-23T01:11:19.492Z,66.2
2017-03-23T01:12:00.074Z,66.3
2017-03-23T01:12:40.662Z,66.3
2017-03-23T01:13:21.238Z,66.68
2017-03-23T01:14:01.813Z,66.68
2017-03-23T01:14:42.389Z,66.58
2017-03-23T01:15:22.959Z,66.49
2017-03-23T01:16:03.539Z,66.68
2017-03-23T01:16:44.125Z,66.39
2017-03-23T01:17:24.711Z,66.3
2017-03-23T01:18:05.292Z,66.39
2017-03-23T01:18:45.886Z,66.3
2017-03-23T01:19:26.461Z,66.3
2017-03-23T01:20:07.045Z,66.2
2017-03-23T01:21:02.148Z,66.39
2017-03-23T01:21:42.732Z,66.77
2017-03-23T01:22:23.316Z,66.77
2017-03-23T01:23:03.897Z,66.77
2017-03-23T01:23:44.482Z,66.39
2017-03-23T01:24:25.062Z,66.39
2017-03-23T01:25:05.648Z,66.2
2017-03-23T01:25:46.233Z,66.49
2017-03-23T01:26:26.819Z,66.42
2017-03-23T01:27:07.397Z,66.3
2017-03-23T01:27:47.968Z,66.39
2017-03-23T01:28:28.543Z,66.39
2017-03-23T01:29:09.125Z,66.3
2017-03-23T01:29:49.705Z,66.52
2017-03-23T01:30:30.291Z,66.3
2017-03-23T01:31:10.873Z,66.61
2017-03-23T01:31:51.439Z,66.49
2017-03-23T01:32:32.028Z,66.58
2017-03-23T01:33:12.605Z,66.58
2017-03-23T01:33:53.199Z,66.49
2017-03-23T01:34:33.777Z,66.58
2017-03-23T01:35:14.351Z,66.39
2017-03-23T01:35:54.937Z,66.87
2017-03-23T01:36:35.526Z,66.58
2017-03-23T01:37:16.100Z,66.58
2017-03-23T01:39:13.824Z,66.49
2017-03-23T01:39:54.402Z,66.68
2017-03-23T01:40:34.991Z,66.58
2017-03-23T01:42:52.902Z,66.58
2017-03-23T01:43:33.492Z,66.87
2017-03-23T01:44:14.072Z,66.68
2017-03-23T01:44:54.643Z,66.68
2017-03-23T01:45:35.223Z,66.2
2017-03-23T01:46:15.807Z,66.77
2017-03-23T01:46:56.392Z,66.49
2017-03-23T01:47:36.974Z,66.3
2017-03-23T01:48:17.555Z,66.49
2017-03-23T01:48:58.135Z,66.49
2017-03-23T01:49:38.731Z,66.39
2017-03-23T01:50:19.315Z,66.77
2017-03-23T01:50:59.887Z,66.77
2017-03-23T01:51:40.473Z,66.58
2017-03-23T01:52:21.058Z,66.58
2017-03-23T01:53:01.640Z,66.42
2017-03-23T01:53:42.215Z,66.58
2017-03-23T01:54:22.791Z,66.39
2017-03-23T01:55:03.368Z,66.87
2017-03-23T01:55:45.683Z,66.77
2017-03-23T01:56:26.265Z,66.58
2017-03-23T01:57:06.837Z,66.87
2017-03-23T01:57:47.421Z,66.58
2017-03-23T01:58:28.043Z,66.81
2017-03-23T01:59:08.575Z,66.58
2017-03-23T01:59:49.157Z,66.49
2017-03-23T02:00:29.723Z,66.3
2017-03-23T02:01:10.292Z,66.42
2017-03-23T02:01:50.881Z,66.61
2017-03-23T02:02:31.463Z,66.71
2017-03-23T02:03:12.044Z,66.58
2017-03-23T02:03:52.627Z,66.58
2017-03-23T02:04:33.212Z,66.68
2017-03-23T02:05:13.791Z,66.81
2017-03-23T02:05:54.372Z,66.77
2017-03-23T02:06:34.946Z,66.77
2017-03-23T02:07:15.531Z,66.1
2017-03-23T02:07:56.111Z,66.2
2017-03-23T02:08:36.694Z,66.23
2017-03-23T02:09:17.273Z,66.3
2017-03-23T02:11:09.869Z,66.49
2017-03-23T02:11:50.460Z,66.23
2017-03-23T02:12:31.035Z,66.49
2017-03-23T02:13:11.620Z,66.52
2017-03-23T02:13:52.198Z,66.49
2017-03-23T02:14:32.776Z,66.39
2017-03-23T02:15:13.358Z,66.49
2017-03-23T02:15:53.930Z,66.52
2017-03-23T02:16:34.515Z,66.42
2017-03-23T02:17:16.564Z,66.61
2017-03-23T02:17:56.245Z,66.39
2017-03-23T02:18:36.830Z,66.39
2017-03-23T02:19:17.392Z,66.61
2017-03-23T02:19:57.961Z,66.49
2017-03-23T02:20:38.544Z,66.58
2017-03-23T02:21:19.125Z,66.3
2017-03-23T02:21:59.710Z,66
2017-03-23T02:22:40.287Z,66.14
2017-03-23T02:23:20.863Z,66.3
2017-03-23T02:24:01.763Z,66.1
2017-03-23T02:24:42.512Z,66.3
2017-03-23T02:25:23.083Z,66.33
2017-03-23T02:26:03.662Z,66.14
2017-03-23T02:26:44.245Z,66.39
2017-03-23T02:27:24.834Z,66.3
2017-03-23T02:28:05.403Z,66.3
2017-03-23T02:28:45.990Z,66.3
2017-03-23T02:29:26.572Z,66.3
2017-03-23T02:30:07.152Z,66.3
2017-03-23T02:30:47.725Z,66.2
2017-03-23T02:31:28.307Z,66.3
2017-03-23T02:32:08.881Z,66.3
2017-03-23T02:32:49.462Z,66.3
2017-03-23T02:33:30.045Z,66.2
2017-03-23T02:34:10.629Z,66.3
2017-03-23T02:34:51.205Z,66.3
2017-03-23T02:35:31.782Z,66.3
2017-03-23T02:36:12.362Z,66.3
2017-03-23T02:37:07.644Z,66.2
2017-03-23T02:37:48.224Z,66.1
2017-03-23T02:38:28.799Z,66.3
2017-03-23T02:39:10.166Z,66.39
2017-03-23T02:39:50.737Z,66.68
2017-03-23T02:40:31.310Z,66.58
2017-03-23T02:41:11.892Z,66.87
2017-03-23T02:41:52.480Z,66.87
2017-03-23T02:42:33.063Z,66.68
2017-03-23T02:43:13.646Z,66.81
2017-03-23T02:43:54.221Z,66.71
2017-03-23T02:44:34.803Z,66.68
2017-03-23T02:45:15.372Z,66.58
2017-03-23T02:45:55.955Z,66.39
2017-03-23T02:46:36.542Z,66.87
2017-03-23T02:47:17.119Z,66.49
2017-03-23T02:47:57.698Z,67.07
2017-03-23T02:48:38.277Z,66.91
2017-03-23T02:49:18.846Z,66.61
2017-03-23T02:49:59.431Z,66.68
2017-03-23T02:50:40.003Z,66.71
2017-03-23T02:51:20.585Z,66.71
2017-03-23T02:52:01.162Z,66.33
2017-03-23T02:52:41.744Z,66.33
2017-03-23T02:53:22.324Z,66.61
2017-03-23T02:54:02.911Z,66.52
2017-03-23T02:54:58.281Z,66.52
2017-03-23T02:55:38.852Z,66.61
2017-03-23T02:56:19.435Z,66.61
2017-03-23T02:57:00.022Z,66.71
2017-03-23T02:57:40.611Z,66.71
2017-03-23T02:58:21.190Z,66.61
2017-03-23T02:59:01.769Z,66.91
2017-03-23T02:59:42.352Z,66.33
2017-03-23T03:00:22.937Z,66.3
2017-03-23T03:01:03.520Z,66.42
2017-03-23T03:01:44.112Z,66.52
2017-03-23T03:02:24.682Z,66.23
2017-03-23T03:03:05.259Z,66.42
2017-03-23T03:03:45.839Z,66.14
2017-03-23T03:04:26.418Z,66.61
2017-03-23T03:05:06.984Z,66.71
2017-03-23T03:05:47.568Z,66.14
2017-03-23T03:06:29.238Z,66.71
2017-03-23T03:07:09.819Z,66.71
2017-03-23T03:07:50.387Z,66.52
2017-03-23T03:08:30.974Z,66.33
2017-03-23T03:09:11.557Z,66.42
2017-03-23T03:09:52.136Z,66.14
2017-03-23T03:10:32.719Z,66.33
2017-03-23T03:11:13.318Z,66.33
2017-03-23T03:11:53.872Z,66.33
2017-03-23T03:12:34.451Z,66.14
2017-03-23T03:13:29.599Z,66.14
2017-03-23T03:14:10.185Z,66.61
2017-03-23T03:14:50.764Z,66.52
2017-03-23T03:15:31.348Z,66.42
2017-03-23T03:16:11.934Z,66.52
2017-03-23T03:16:52.505Z,66.52
2017-03-23T03:17:33.097Z,66.42
2017-03-23T03:18:13.682Z,66.42
2017-03-23T03:18:54.268Z,66.33
2017-03-23T03:19:34.848Z,66.33
2017-03-23T03:20:15.427Z,66.81
2017-03-23T03:20:56.004Z,66.61
2017-03-23T03:21:36.588Z,66.58
2017-03-23T03:22:17.171Z,66.42
2017-03-23T03:22:57.754Z,66.52
2017-03-23T03:23:38.330Z,66.71
2017-03-23T03:24:18.914Z,66.42
2017-03-23T03:24:59.494Z,66.61
2017-03-23T03:25:40.079Z,66.71
2017-03-23T03:26:20.655Z,66.61
2017-03-23T03:27:01.229Z,66.52
2017-03-23T03:27:41.807Z,66.61
2017-03-23T03:28:22.396Z,66.61
2017-03-23T03:29:02.969Z,66.52
2017-03-23T03:29:43.551Z,66.14
2017-03-23T03:30:24.136Z,66.91
2017-03-23T03:31:04.710Z,66.81
2017-03-23T03:31:45.292Z,66.81
2017-03-23T03:32:25.875Z,66.71
2017-03-23T03:33:06.454Z,66.61
2017-03-23T03:33:47.028Z,66.61
2017-03-23T03:34:27.611Z,66.33
2017-03-23T03:35:08.192Z,66.52
2017-03-23T03:35:48.782Z,66.81
2017-03-23T03:36:29.363Z,66.71
2017-03-23T03:37:09.958Z,66.68
2017-03-23T03:37:50.542Z,66.61
2017-03-23T03:38:31.117Z,66.81
2017-03-23T03:39:11.700Z,66.52
2017-03-23T03:39:52.285Z,66.91
2017-03-23T03:40:32.853Z,66.61
2017-03-23T03:41:13.436Z,66.58
2017-03-23T03:41:54.012Z,67.1
2017-03-23T03:42:34.589Z,66.81
2017-03-23T03:43:15.157Z,66.49
2017-03-23T03:43:55.743Z,66.91
2017-03-23T03:44:36.316Z,66.81
2017-03-23T03:45:16.904Z,66.42
2017-03-23T03:45:57.480Z,66.71
2017-03-23T03:46:38.053Z,66.91
2017-03-23T03:47:18.630Z,66.77
2017-03-23T03:48:13.790Z,66.71
2017-03-23T03:48:54.388Z,67.07
2017-03-23T03:49:34.957Z,66.81
2017-03-23T03:50:15.551Z,67.07
2017-03-23T03:50:56.131Z,66.81
2017-03-23T03:51:36.698Z,67.07
2017-03-23T03:52:17.287Z,67.68
2017-03-23T03:52:57.861Z,67.68
2017-03-23T03:53:38.606Z,67.38
2017-03-23T03:54:19.222Z,67.19
2017-03-23T03:54:59.964Z,67.68
2017-03-23T03:55:40.543Z,67.1
2017-03-23T03:56:31.899Z,67.38
2017-03-23T03:57:12.525Z,67.38
2017-03-23T03:57:53.067Z,67.45
2017-03-23T03:58:33.649Z,67.48
2017-03-23T03:59:14.233Z,67.38
2017-03-23T03:59:54.926Z,67.29
2017-03-23T04:00:35.514Z,67.38
2017-03-23T04:01:16.088Z,67.58
2017-03-23T04:01:56.663Z,67.48
2017-03-23T04:02:37.242Z,67.29
2017-03-23T04:03:17.813Z,67.38
2017-03-23T04:03:58.399Z,67.38
2017-03-23T04:04:38.984Z,67.77
2017-03-23T04:05:19.624Z,67.86
2017-03-23T04:06:00.212Z,67.77
2017-03-23T04:06:40.955Z,67.77
2017-03-23T04:07:21.749Z,67.86
2017-03-23T04:08:02.665Z,67.48
2017-03-23T04:08:43.614Z,68.15
2017-03-23T04:09:24.190Z,68.06
2017-03-23T04:10:04.767Z,68.06
2017-03-23T04:10:45.642Z,67.48
2017-03-23T04:11:26.586Z,67.86
2017-03-23T04:12:07.356Z,67.86
2017-03-23T04:12:47.931Z,67.68
2017-03-23T04:13:28.507Z,67.1
2017-03-23T04:14:09.081Z,66.61
2017-03-23T04:14:49.662Z,65.56
2017-03-23T04:15:30.237Z,65.17
2017-03-23T04:16:10.812Z,63.02
2017-03-23T04:16:51.593Z,62.35
2017-03-23T04:17:32.172Z,64.56
2017-03-23T04:18:12.903Z,64.95
2017-03-23T04:18:53.729Z,65.53
2017-03-23T04:19:34.338Z,65.53
2017-03-23T04:20:14.924Z,65.91
2017-03-23T04:20:55.541Z,65.33
2017-03-23T04:21:36.090Z,65.23
2017-03-23T04:22:16.900Z,65.53
2017-03-23T04:22:57.474Z,65.33
2017-03-23T04:23:38.059Z,65.91
2017-03-23T04:24:18.754Z,65.81
2017-03-23T04:24:59.636Z,65.81
2017-03-23T04:25:40.551Z,65.81
2017-03-23T04:26:21.137Z,65.72
2017-03-23T04:27:01.706Z,66.3
2017-03-23T04:27:42.273Z,63.99
2017-03-23T04:28:22.857Z,63.12
2017-03-23T04:29:03.537Z,62.64
2017-03-23T04:29:44.198Z,63.38
2017-03-23T04:30:24.861Z,64.28
2017-03-23T04:31:06.267Z,64.53
2017-03-23T04:31:46.843Z,64.63
2017-03-23T04:32:27.707Z,64.53
2017-03-23T04:33:08.338Z,64.56
2017-03-23T04:33:49.146Z,64.82
2017-03-23T04:34:29.719Z,64.43
2017-03-23T04:35:10.389Z,64.43
2017-03-23T04:35:51.084Z,64.63
2017-03-23T04:36:31.770Z,65.01
2017-03-23T04:37:12.599Z,64.82
2017-03-23T04:37:53.179Z,65.01
2017-03-23T04:38:33.753Z,64.72
2017-03-23T04:39:14.336Z,64.82
2017-03-23T04:39:54.917Z,65.3
2017-03-23T04:40:35.751Z,65.3
2017-03-23T04:41:16.521Z,65.3
2017-03-23T04:41:57.491Z,65.01
2017-03-23T04:42:39.594Z,65.3
2017-03-23T04:43:19.158Z,65.59
2017-03-23T04:43:59.740Z,65.2
2017-03-23T04:44:40.512Z,65.3
2017-03-23T04:45:21.349Z,65.2
2017-03-23T04:46:02.099Z,65.2
2017-03-23T04:46:42.731Z,65.2
2017-03-23T04:47:23.547Z,65.59
2017-03-23T04:48:04.649Z,65.49
2017-03-23T04:48:45.630Z,65.49
2017-03-23T04:49:26.212Z,65.3
2017-03-23T04:50:06.796Z,63.48
2017-03-23T04:51:59.405Z,59.34
2017-03-23T04:52:39.992Z,59.7
2017-03-23T04:53:20.573Z,59.8
2017-03-23T04:54:01.148Z,59.8
2017-03-23T04:54:52.443Z,58.55
2017-03-23T04:55:33.112Z,57.78
2017-03-23T04:56:13.688Z,57.4
2017-03-23T04:56:54.265Z,56.73
2017-03-23T04:57:34.839Z,56.89
2017-03-23T04:58:15.420Z,56.31
2017-03-23T04:58:55.986Z,57.18
2017-03-23T04:59:36.568Z,57.56
2017-03-23T05:00:17.146Z,57.46
2017-03-23T05:00:57.724Z,57.95
2017-03-23T05:01:38.295Z,57.65
2017-03-23T05:02:18.865Z,56.89
2017-03-23T05:02:59.446Z,57.28
2017-03-23T05:03:40.023Z,57.43
2017-03-23T05:04:20.603Z,58.2
2017-03-23T05:05:01.185Z,58.69
2017-03-23T05:05:41.761Z,58.59
2017-03-23T05:06:22.344Z,57.92
2017-03-23T05:07:02.913Z,57.34
2017-03-23T05:07:43.492Z,57.06
2017-03-23T05:08:39.091Z,57.24
2017-03-23T05:09:19.672Z,57.79
2017-03-23T05:10:00.259Z,59.23
2017-03-23T05:10:40.839Z,58.46
2017-03-23T05:11:21.434Z,58.69
2017-03-23T05:12:02.007Z,58.75
2017-03-23T05:12:42.578Z,59.04
2017-03-23T05:13:23.121Z,59.23
2017-03-23T18:15:41.919Z,60.1
2017-03-23T18:16:22.486Z,60
2017-03-23T18:17:03.011Z,59.91
2017-03-23T18:17:43.535Z,59.65
2017-03-23T18:18:24.250Z,59.62
2017-03-23T18:19:05.053Z,59.65
2017-03-23T18:19:46.113Z,59.27
2017-03-23T18:20:26.680Z,59.08
2017-03-23T18:21:07.218Z,58.4
2017-03-23T18:21:47.805Z,58.5
2017-03-23T18:22:28.419Z,58.02
2017-03-23T18:23:09.019Z,57.16
2017-03-23T18:23:49.543Z,57.16
2017-03-23T18:24:30.124Z,57.54
2017-03-23T18:25:10.736Z,57.06
2017-03-23T18:25:51.342Z,56.77
2017-03-23T18:26:31.876Z,56.77
2017-03-23T18:27:12.455Z,56.23
2017-03-23T18:27:53.021Z,56.32
2017-03-23T18:28:33.597Z,56.42
2017-03-23T18:29:14.165Z,56.04
2017-03-23T18:29:54.762Z,56.04
2017-03-23T18:30:35.305Z,55.75
2017-03-23T18:31:15.869Z,55.94
2017-03-23T18:31:56.451Z,55.65
2017-03-23T18:32:37.026Z,55.65
2017-03-23T18:33:17.609Z,55.18
2017-03-23T18:33:58.179Z,55.56
2017-03-23T18:34:38.749Z,55.56
2017-03-23T18:35:19.318Z,55.18
2017-03-23T18:35:59.903Z,55.27
2017-03-23T18:36:40.493Z,54.99
2017-03-23T18:37:21.065Z,54.91
2017-03-23T18:38:01.650Z,55.08
2017-03-23T18:38:42.228Z,55.27
2017-03-23T18:39:22.815Z,54.89
2017-03-23T18:40:03.391Z,54.82
2017-03-23T18:40:43.968Z,54.63
2017-03-23T18:41:24.549Z,54.72
2017-03-23T18:42:05.129Z,54.82
2017-03-23T18:42:45.690Z,54.82
2017-03-23T18:43:27.017Z,54.34
2017-03-23T18:44:06.952Z,54.15
2017-03-23T18:44:47.529Z,54.44
2017-03-23T18:45:28.133Z,54.44
2017-03-23T18:46:08.711Z,54.63
2017-03-23T18:46:49.283Z,54.44
2017-03-23T18:47:29.925Z,53.96
2017-03-23T18:48:10.513Z,54.05
2017-03-23T18:48:51.106Z,54.05
2017-03-23T18:49:31.952Z,53.77
2017-03-23T18:50:12.532Z,53.96
2017-03-23T18:50:53.105Z,53.86
2017-03-23T18:51:33.685Z,53.77
2017-03-23T18:52:14.258Z,53.77
2017-03-23T18:52:54.836Z,53.96
2017-03-23T18:53:35.460Z,54.24
2017-03-23T18:54:16.075Z,53.58
2017-03-23T18:54:56.641Z,53.48
2017-03-23T18:55:37.221Z,53.58
2017-03-23T18:56:17.800Z,53.58
2017-03-23T18:56:58.408Z,53.38
2017-03-23T18:57:38.980Z,53.38
2017-03-23T18:58:19.558Z,53.48
2017-03-23T18:59:00.138Z,53.48
2017-03-23T18:59:40.724Z,53.67
2017-03-23T19:00:21.297Z,53.67
2017-03-23T19:01:01.877Z,53.67
2017-03-23T19:01:42.459Z,53.58
2017-03-23T19:02:23.040Z,53.58
2017-03-23T19:03:03.617Z,53.48
2017-03-23T19:03:44.233Z,53.7
2017-03-23T19:04:24.812Z,53.31
2017-03-23T19:05:05.387Z,53.19
2017-03-23T19:05:45.974Z,53.28
2017-03-23T19:06:26.550Z,53.31
2017-03-23T19:07:07.133Z,53.03
2017-03-23T19:07:47.717Z,52.93
2017-03-23T19:08:28.301Z,53.03
2017-03-23T19:09:08.889Z,52.83
2017-03-23T19:09:49.459Z,52.93
2017-03-23T19:10:30.037Z,53.03
2017-03-23T19:11:10.622Z,52.93
2017-03-23T19:11:51.203Z,53.12
2017-03-23T19:12:31.793Z,53.03
2017-03-23T19:13:12.416Z,53.03
2017-03-23T19:13:52.993Z,52.93
2017-03-23T19:14:33.565Z,53.12
2017-03-23T19:15:14.148Z,53.22
2017-03-23T19:15:54.750Z,53.03
2017-03-23T19:16:35.345Z,53.12
2017-03-23T19:17:15.917Z,52.74
2017-03-23T19:17:56.484Z,52.83
2017-03-23T19:18:37.044Z,52.74
2017-03-23T19:19:17.616Z,52.83
2017-03-23T19:19:58.198Z,52.74
2017-03-23T19:20:38.809Z,52.64
2017-03-23T19:21:19.389Z,52.64
2017-03-23T19:21:59.975Z,52.83
2017-03-23T19:22:40.634Z,52.74
2017-03-23T19:23:21.249Z,53.03
2017-03-23T19:24:01.853Z,53.03
2017-03-23T19:24:42.439Z,52.74
2017-03-23T19:25:23.010Z,52.83
2017-03-23T19:26:03.599Z,52.83
2017-03-23T19:26:44.184Z,52.64
2017-03-23T19:27:24.760Z,52.83
2017-03-23T19:28:05.353Z,52.64
2017-03-23T19:28:45.934Z,52.83
2017-03-23T19:29:26.516Z,52.74
2017-03-23T19:30:07.102Z,52.74
2017-03-23T19:30:47.687Z,52.93
2017-03-23T19:31:28.255Z,52.64
2017-03-23T19:32:08.864Z,52.36
2017-03-23T19:32:49.449Z,52.45
2017-03-23T19:33:30.019Z,52.36
2017-03-23T19:34:10.593Z,52.45
2017-03-23T19:34:51.166Z,52.16
2017-03-23T19:35:31.729Z,52.26
2017-03-23T19:36:12.310Z,51.97
2017-03-23T19:36:52.893Z,52.19
2017-03-23T19:37:33.468Z,51.81
2017-03-23T19:38:14.048Z,51.68
2017-03-23T19:38:54.631Z,51.9
2017-03-23T19:39:35.216Z,52
2017-03-23T19:40:15.803Z,52.19
2017-03-23T19:40:56.383Z,51.87
2017-03-23T19:41:36.965Z,51.81
2017-03-23T19:42:17.545Z,51.71
2017-03-23T19:42:58.124Z,51.71
2017-03-23T19:43:38.698Z,51.71
2017-03-23T19:44:19.272Z,52
2017-03-23T19:44:59.863Z,51.61
2017-03-23T19:45:40.438Z,51.61
2017-03-23T19:46:21.023Z,51.42
2017-03-23T19:47:01.608Z,51.42
2017-03-23T19:47:42.183Z,51.04
2017-03-23T19:48:22.769Z,51.14
2017-03-23T19:49:03.345Z,51.61
2017-03-23T19:49:43.946Z,51.14
2017-03-23T19:50:24.507Z,51.51
2017-03-23T19:51:05.093Z,51.14
2017-03-23T19:51:45.676Z,51.32
2017-03-23T19:52:26.775Z,51.32
2017-03-23T19:53:07.953Z,51.42
2017-03-23T19:53:49.105Z,50.94
2017-03-23T19:54:30.372Z,51.04
2017-03-23T19:55:11.640Z,51.23
2017-03-23T19:55:52.851Z,51.14
2017-03-23T19:56:33.785Z,50.65
2017-03-23T19:57:14.796Z,51.23
2017-03-23T19:57:55.719Z,50.94
2017-03-23T19:58:36.788Z,51.32
2017-03-23T19:59:17.994Z,51.42
2017-03-23T19:59:58.564Z,50.65
2017-03-23T20:00:39.153Z,51.23
2017-03-23T20:01:19.719Z,51.32
2017-03-23T20:02:00.307Z,51.04
2017-03-23T20:02:40.939Z,50.65
2017-03-23T20:03:21.525Z,50.75
2017-03-23T20:04:02.120Z,51.04
2017-03-23T20:04:42.703Z,51.04
2017-03-23T20:05:23.286Z,50.65
2017-03-23T20:06:03.879Z,50.84
2017-03-23T20:06:44.458Z,50.84
2017-03-23T20:07:25.040Z,50.65
2017-03-23T20:08:05.620Z,50.94
2017-03-23T20:08:46.219Z,50.65
2017-03-23T20:09:26.827Z,50.65
2017-03-23T20:10:07.397Z,50.56
2017-03-23T20:10:47.968Z,50.84
2017-03-23T20:11:28.579Z,50.75
2017-03-23T20:12:09.125Z,50.94
2017-03-23T20:12:49.698Z,50.65
2017-03-23T20:13:30.274Z,50.94
2017-03-23T20:14:10.848Z,50.46
2017-03-23T20:14:51.450Z,50.94
2017-03-23T20:15:32.032Z,50.94
2017-03-23T20:16:12.622Z,50.75
2017-03-23T20:16:53.177Z,50.56
2017-03-23T20:17:33.760Z,52
2017-03-23T20:18:14.341Z,52.76
2017-03-23T20:18:54.968Z,52.86
2017-03-23T20:19:35.528Z,53.05
2017-03-23T20:20:16.115Z,52.57
2017-03-23T20:20:56.697Z,52.76
2017-03-23T20:22:54.436Z,53.05
2017-03-23T20:23:35.015Z,52.76
2017-03-23T20:24:15.591Z,53.34
2017-03-23T20:24:56.214Z,53.34
2017-03-23T20:25:36.767Z,53.27
2017-03-23T20:26:17.353Z,53.36
2017-03-23T20:26:57.929Z,52.79
2017-03-23T20:27:38.509Z,52.89
2017-03-23T20:28:19.101Z,53.17
2017-03-23T20:28:59.665Z,53.27
2017-03-23T20:29:40.247Z,53.27
2017-03-23T20:30:20.830Z,53.27
2017-03-23T20:31:01.410Z,53.08
2017-03-23T20:31:41.989Z,52.89
2017-03-23T20:32:22.557Z,52.89
2017-03-23T20:33:03.139Z,53.17
2017-03-23T20:33:43.709Z,53.08
2017-03-23T20:34:24.295Z,53.27
2017-03-23T20:35:04.865Z,53.27
2017-03-23T20:35:45.448Z,53.17
2017-03-23T20:36:26.033Z,52.98
2017-03-23T20:37:06.618Z,53.08
2017-03-23T20:37:47.198Z,53.27
2017-03-23T20:38:27.791Z,53.2
2017-03-23T20:39:08.365Z,52.72
2017-03-23T20:39:48.941Z,53.39
2017-03-23T20:40:29.521Z,53.11
2017-03-23T20:41:10.105Z,53.11
2017-03-23T20:41:50.682Z,52.72
2017-03-23T20:42:31.263Z,52.81
2017-03-23T20:43:11.850Z,52.91
2017-03-23T20:43:52.433Z,53.01
2017-03-23T20:44:33.021Z,53.01
2017-03-23T20:45:13.600Z,53.01
2017-03-23T20:45:54.171Z,52.81
2017-03-23T20:46:34.759Z,52.81
2017-03-23T20:47:15.341Z,52.91
2017-03-23T20:47:55.914Z,53.01
2017-03-23T20:48:36.487Z,52.91
2017-03-23T20:49:17.078Z,52.91
2017-03-23T20:49:57.646Z,52.91
2017-03-23T20:50:38.227Z,53.01
2017-03-23T20:51:18.810Z,53.01
2017-03-23T20:52:00.517Z,52.81
2017-03-23T20:52:41.082Z,53.01
2017-03-23T20:53:21.660Z,52.81
2017-03-23T20:54:02.238Z,52.91
2017-03-23T20:54:43.727Z,52.81
2017-03-23T20:55:24.316Z,52.72
2017-03-23T20:56:04.898Z,52.81
2017-03-23T20:56:45.482Z,52.72
2017-03-23T20:57:26.066Z,52.81
2017-03-23T20:58:06.640Z,52.72
2017-03-23T20:58:47.215Z,52.91
2017-03-23T20:59:27.793Z,52.72
2017-03-23T21:00:08.380Z,52.91
2017-03-23T21:00:48.949Z,53.11
2017-03-23T21:01:29.544Z,52.72
2017-03-23T21:02:10.113Z,53.39
2017-03-23T21:03:06.629Z,53.2
2017-03-23T21:03:47.206Z,53.11
2017-03-23T21:04:27.801Z,53.3
2017-03-23T21:05:08.387Z,53.3
2017-03-23T21:06:03.955Z,53.11
2017-03-23T21:06:44.538Z,53.2
2017-03-23T21:07:25.103Z,53.2
2017-03-23T21:08:05.678Z,53.2
2017-03-23T21:08:46.260Z,53.11
2017-03-23T21:09:26.834Z,52.91
2017-03-23T21:10:07.408Z,53.13
2017-03-23T21:10:47.976Z,53.03
2017-03-23T21:11:28.556Z,53.39
2017-03-23T21:12:09.141Z,53.39
2017-03-23T21:12:50.553Z,53.49
2017-03-23T21:13:31.134Z,53.3
2017-03-23T21:14:11.716Z,53.3
2017-03-23T21:14:52.300Z,53.78
2017-03-23T21:15:32.873Z,53.58
2017-03-23T21:16:13.452Z,53.42
2017-03-23T21:16:54.031Z,53.58
2017-03-23T21:17:34.606Z,53.39
2017-03-23T21:18:15.190Z,53.49
2017-03-23T21:18:55.772Z,53.61
2017-03-23T21:19:36.349Z,53.8
2017-03-23T21:20:16.924Z,54.16
2017-03-23T21:20:57.512Z,54.09
2017-03-23T21:21:38.090Z,53.87
2017-03-23T21:22:18.657Z,54.06
2017-03-23T21:22:59.223Z,54.06
2017-03-23T21:23:39.807Z,53.78
2017-03-23T21:24:20.387Z,54.06
2017-03-23T21:25:00.968Z,53.9
2017-03-23T21:25:41.555Z,54.09
2017-03-23T21:26:22.136Z,54.57
2017-03-23T21:27:02.726Z,54.64
2017-03-23T21:27:43.307Z,54.57
2017-03-23T21:28:23.888Z,54.57
2017-03-23T21:29:04.477Z,54.57
2017-03-23T21:29:45.053Z,54.77
2017-03-23T21:30:25.647Z,54.67
2017-03-23T21:31:21.156Z,54.57
2017-03-23T21:32:01.750Z,54.57
2017-03-23T21:32:42.325Z,54.67
2017-03-23T21:33:22.901Z,54.67
2017-03-23T21:34:03.473Z,54.67
2017-03-23T21:34:44.551Z,54.25
2017-03-23T21:35:25.134Z,54.57
2017-03-23T21:36:05.714Z,54.19
2017-03-23T21:36:46.295Z,54.47
2017-03-23T21:37:26.878Z,54.57
2017-03-23T21:38:07.462Z,54.47
2017-03-23T21:38:48.043Z,54.57
2017-03-23T21:39:28.628Z,54.86
2017-03-23T21:41:21.241Z,54.96
2017-03-23T21:42:01.826Z,54.86
2017-03-23T21:42:42.407Z,54.86
2017-03-23T21:43:22.978Z,55.05
2017-03-23T21:44:03.560Z,55.34
2017-03-23T21:44:44.198Z,55.24
2017-03-23T21:45:24.732Z,55.15
2017-03-23T21:46:05.320Z,55.05
2017-03-23T21:46:45.899Z,55.24
2017-03-23T21:47:26.482Z,55.24
2017-03-23T21:48:07.057Z,55.73
2017-03-23T21:48:47.637Z,55.6
2017-03-23T21:49:28.213Z,55.73
2017-03-23T21:50:08.796Z,55.73
2017-03-23T21:50:49.375Z,55.73
2017-03-23T21:51:29.958Z,55.6
2017-03-23T21:52:10.536Z,55.91
2017-03-23T21:52:51.115Z,55.91
2017-03-23T21:53:31.698Z,56.11
2017-03-23T21:54:12.272Z,56.3
2017-03-23T21:54:52.844Z,56.37
2017-03-23T21:55:33.432Z,56.21
2017-03-23T21:56:14.009Z,55.73
2017-03-23T21:56:54.588Z,56.08
2017-03-23T21:57:35.174Z,56.11
2017-03-23T21:58:15.738Z,56.11
2017-03-23T21:58:56.324Z,56.18
2017-03-23T21:59:36.904Z,55.99
2017-03-23T22:00:17.477Z,56.4
2017-03-23T22:00:58.053Z,56.3
2017-03-23T22:01:38.636Z,56.21
2017-03-23T22:02:19.223Z,56.3
2017-03-23T22:02:59.797Z,56.4
2017-03-23T22:03:40.389Z,56.4
2017-03-23T22:04:20.972Z,56.3
2017-03-23T22:05:01.554Z,55.82